MMGL/GDL METAR and TAF weather

Enter ICAO airport designator
Station Type Date Time Source
MMGL METAR 2022/11/30 14:45 UTC NOAA

MMGL 301445Z 00000KT 6SM FEW300 14/07 A3020 RMK SLP139 51014 905 8/001 HZY


Station Type Date Time Source
MMGL Decoded METAR 2022/11/30 14:45 UTC NOAA

Don Miguel / Guadalaj, Mexico (MMGL) 20-31N 103-19W
Nov 30, 2022 - 09:45 AM EST / 2022.11.30 1445 UTC
Wind: Calm:0
Visibility: 6 mile(s):0
Sky conditions: mostly clear
Temperature: 57 F (14 C)
Dew Point: 44 F (7 C)
Relative Humidity: 62%
Pressure (altimeter): 30.2 in. Hg (1022 hPa)
Pressure tendency: 0.04 inches (1.4 hPa) higher than three hours ago
ob: MMGL 301445Z 00000KT 6SM FEW300 14/07 A3020 RMK SLP139 51014 905 8/001 HZY
cycle: 15

Station Type Date Time Source
MMGL TAF 2022/11/30 12:28 UTC NOAA

TAF MMGL 301022Z 3012/0118 00000KT P6SM SKC TX27/3021Z TN10/3012Z
FM301800 03010KT P6SM SCT030 BKN090 BKN250
FM010600 34005KT P6SM SCT250
TEMPO 0111/0115 4SM HZ SCT020
FM011700 36010KT P6SM SCT030 SCT090 BKN250

Example: see airport list